sensor_id;sensor_type;location;lat;lon;timestamp;temperature;humidity
48488;DHT22;34289;48.572;13.378;2022-08-18T00:01:07;19.40;99.90
48488;DHT22;34289;48.572;13.378;2022-08-18T00:03:33;19.50;99.90
48488;DHT22;34289;48.572;13.378;2022-08-18T00:05:59;19.60;99.90
48488;DHT22;34289;48.572;13.378;2022-08-18T00:08:24;19.70;99.90
48488;DHT22;34289;48.572;13.378;2022-08-18T00:10:52;19.80;99.90
48488;DHT22;34289;48.572;13.378;2022-08-18T00:13:17;19.80;99.90
48488;DHT22;34289;48.572;13.378;2022-08-18T00:15:43;19.70;99.90
48488;DHT22;34289;48.572;13.378;2022-08-18T00:18:08;19.70;99.90
48488;DHT22;34289;48.572;13.378;2022-08-18T00:20:34;19.80;99.90
48488;DHT22;34289;48.572;13.378;2022-08-18T00:22:59;19.70;99.90
48488;DHT22;34289;48.572;13.378;2022-08-18T00:25:25;19.70;99.90
48488;DHT22;34289;48.572;13.378;2022-08-18T00:27:50;19.70;99.90
48488;DHT22;34289;48.572;13.378;2022-08-18T00:30:17;19.80;99.90
48488;DHT22;34289;48.572;13.378;2022-08-18T00:32:45;19.80;99.90
48488;DHT22;34289;48.572;13.378;2022-08-18T00:35:16;20.50;99.90
48488;DHT22;34289;48.572;13.378;2022-08-18T00:37:43;19.80;99.90
48488;DHT22;34289;48.572;13.378;2022-08-18T00:40:11;19.80;99.90
48488;DHT22;34289;48.572;13.378;2022-08-18T00:42:43;19.80;99.90
48488;DHT22;34289;48.572;13.378;2022-08-18T00:45:10;19.80;99.90
48488;DHT22;34289;48.572;13.378;2022-08-18T00:47:36;19.90;99.90
48488;DHT22;34289;48.572;13.378;2022-08-18T00:50:02;19.70;99.90
48488;DHT22;34289;48.572;13.378;2022-08-18T00:52:28;19.70;99.90
48488;DHT22;34289;48.572;13.378;2022-08-18T00:54:53;19.70;99.90
48488;DHT22;34289;48.572;13.378;2022-08-18T00:57:19;19.70;99.90
48488;DHT22;34289;48.572;13.378;2022-08-18T00:59:47;19.60;99.90
48488;DHT22;34289;48.572;13.378;2022-08-18T01:02:21;19.70;99.90
48488;DHT22;34289;48.572;13.378;2022-08-18T01:04:55;19.60;99.90
48488;DHT22;34289;48.572;13.378;2022-08-18T01:07:24;19.60;99.90
48488;DHT22;34289;48.572;13.378;2022-08-18T01:09:50;19.50;99.90
48488;DHT22;34289;48.572;13.378;2022-08-18T01:12:17;19.50;99.90
48488;DHT22;34289;48.572;13.378;2022-08-18T01:14:42;19.50;99.90
48488;DHT22;34289;48.572;13.378;2022-08-18T01:17:09;19.50;99.90
48488;DHT22;34289;48.572;13.378;2022-08-18T01:19:53;19.50;99.90
48488;DHT22;34289;48.572;13.378;2022-08-18T01:23:24;19.50;99.90
48488;DHT22;34289;48.572;13.378;2022-08-18T01:25:24;19.50;99.90
48488;DHT22;34289;48.572;13.378;2022-08-18T01:28:08;19.40;99.90
48488;DHT22;34289;48.572;13.378;2022-08-18T01:30:44;19.40;99.90
48488;DHT22;34289;48.572;13.378;2022-08-18T01:33:09;19.40;99.90
48488;DHT22;34289;48.572;13.378;2022-08-18T01:35:36;19.40;99.90
48488;DHT22;34289;48.572;13.378;2022-08-18T01:38:04;19.50;99.90
48488;DHT22;34289;48.572;13.378;2022-08-18T01:40:30;19.60;99.90
48488;DHT22;34289;48.572;13.378;2022-08-18T01:42:56;19.70;99.90
48488;DHT22;34289;48.572;13.378;2022-08-18T01:45:22;19.70;99.90
48488;DHT22;34289;48.572;13.378;2022-08-18T01:47:48;19.60;99.90
48488;DHT22;34289;48.572;13.378;2022-08-18T01:50:15;19.60;99.90
48488;DHT22;34289;48.572;13.378;2022-08-18T01:52:41;19.60;99.90
48488;DHT22;34289;48.572;13.378;2022-08-18T01:55:07;19.70;99.90
48488;DHT22;34289;48.572;13.378;2022-08-18T01:57:35;19.90;99.90
48488;DHT22;34289;48.572;13.378;2022-08-18T02:00:03;19.80;99.90
48488;DHT22;34289;48.572;13.378;2022-08-18T02:02:29;19.80;99.90
48488;DHT22;34289;48.572;13.378;2022-08-18T02:04:58;20.30;99.90
48488;DHT22;34289;48.572;13.378;2022-08-18T02:07:26;20.80;99.90
48488;DHT22;34289;48.572;13.378;2022-08-18T02:09:51;21.20;99.90
48488;DHT22;34289;48.572;13.378;2022-08-18T02:12:17;21.40;99.90
48488;DHT22;34289;48.572;13.378;2022-08-18T02:14:42;21.40;99.90
48488;DHT22;34289;48.572;13.378;2022-08-18T02:17:09;21.40;99.90
48488;DHT22;34289;48.572;13.378;2022-08-18T02:19:36;21.40;99.90
48488;DHT22;34289;48.572;13.378;2022-08-18T02:22:03;21.40;99.90
48488;DHT22;34289;48.572;13.378;2022-08-18T02:24:29;21.40;99.90
48488;DHT22;34289;48.572;13.378;2022-08-18T02:26:54;21.40;99.90
48488;DHT22;34289;48.572;13.378;2022-08-18T02:29:20;21.30;99.90
48488;DHT22;34289;48.572;13.378;2022-08-18T02:31:45;21.30;99.90
48488;DHT22;34289;48.572;13.378;2022-08-18T02:34:11;21.20;99.90
48488;DHT22;34289;48.572;13.378;2022-08-18T02:36:36;21.20;99.90
48488;DHT22;34289;48.572;13.378;2022-08-18T02:39:02;21.20;99.90
48488;DHT22;34289;48.572;13.378;2022-08-18T02:41:28;21.20;99.90
48488;DHT22;34289;48.572;13.378;2022-08-18T02:43:53;21.20;99.90
48488;DHT22;34289;48.572;13.378;2022-08-18T02:46:19;21.20;99.90
48488;DHT22;34289;48.572;13.378;2022-08-18T02:48:44;21.10;99.90
48488;DHT22;34289;48.572;13.378;2022-08-18T02:51:13;21.00;99.90
48488;DHT22;34289;48.572;13.378;2022-08-18T02:53:39;21.00;99.90
48488;DHT22;34289;48.572;13.378;2022-08-18T02:59:04;20.90;99.90
48488;DHT22;34289;48.572;13.378;2022-08-18T03:01:31;20.90;99.90
48488;DHT22;34289;48.572;13.378;2022-08-18T03:03:58;20.90;99.90
48488;DHT22;34289;48.572;13.378;2022-08-18T03:06:24;20.90;99.90
48488;DHT22;34289;48.572;13.378;2022-08-18T03:08:49;20.80;99.90
48488;DHT22;34289;48.572;13.378;2022-08-18T03:11:17;20.70;99.90
48488;DHT22;34289;48.572;13.378;2022-08-18T03:13:43;20.70;99.90
48488;DHT22;34289;48.572;13.378;2022-08-18T03:16:09;20.60;99.90
48488;DHT22;34289;48.572;13.378;2022-08-18T03:18:35;20.50;99.90
48488;DHT22;34289;48.572;13.378;2022-08-18T03:21:06;20.50;99.90
48488;DHT22;34289;48.572;13.378;2022-08-18T03:23:32;20.50;99.90
48488;DHT22;34289;48.572;13.378;2022-08-18T03:25:57;20.40;99.90
48488;DHT22;34289;48.572;13.378;2022-08-18T03:28:23;20.30;99.90
48488;DHT22;34289;48.572;13.378;2022-08-18T03:30:48;20.10;99.90
48488;DHT22;34289;48.572;13.378;2022-08-18T03:33:14;20.10;99.90
48488;DHT22;34289;48.572;13.378;2022-08-18T03:35:39;20.00;99.90
48488;DHT22;34289;48.572;13.378;2022-08-18T03:38:05;20.00;99.90
48488;DHT22;34289;48.572;13.378;2022-08-18T03:40:31;19.90;99.90
48488;DHT22;34289;48.572;13.378;2022-08-18T03:42:57;19.80;99.90
48488;DHT22;34289;48.572;13.378;2022-08-18T03:45:22;19.70;99.90
48488;DHT22;34289;48.572;13.378;2022-08-18T03:47:49;19.80;99.90
48488;DHT22;34289;48.572;13.378;2022-08-18T03:50:16;19.80;99.90
48488;DHT22;34289;48.572;13.378;2022-08-18T03:52:44;19.90;99.90
48488;DHT22;34289;48.572;13.378;2022-08-18T03:55:13;19.80;99.90
48488;DHT22;34289;48.572;13.378;2022-08-18T03:57:39;19.80;99.90
48488;DHT22;34289;48.572;13.378;2022-08-18T04:00:04;19.70;99.90
48488;DHT22;34289;48.572;13.378;2022-08-18T04:02:30;19.70;99.90
48488;DHT22;34289;48.572;13.378;2022-08-18T04:04:56;19.80;99.90
48488;DHT22;34289;48.572;13.378;2022-08-18T04:07:21;19.70;99.90
48488;DHT22;34289;48.572;13.378;2022-08-18T04:09:47;19.60;99.90
48488;DHT22;34289;48.572;13.378;2022-08-18T04:12:13;19.50;99.90
48488;DHT22;34289;48.572;13.378;2022-08-18T04:14:40;19.40;99.90
48488;DHT22;34289;48.572;13.378;2022-08-18T04:17:06;19.20;99.90
48488;DHT22;34289;48.572;13.378;2022-08-18T04:19:32;19.10;99.90
48488;DHT22;34289;48.572;13.378;2022-08-18T04:21:59;19.30;99.90
48488;DHT22;34289;48.572;13.378;2022-08-18T04:24:26;19.30;99.90
48488;DHT22;34289;48.572;13.378;2022-08-18T04:26:53;19.40;99.90
48488;DHT22;34289;48.572;13.378;2022-08-18T04:29:18;19.40;99.90
48488;DHT22;34289;48.572;13.378;2022-08-18T04:31:45;19.40;99.90
48488;DHT22;34289;48.572;13.378;2022-08-18T04:34:11;19.40;99.90
48488;DHT22;34289;48.572;13.378;2022-08-18T04:36:36;19.40;99.90
48488;DHT22;34289;48.572;13.378;2022-08-18T04:39:04;19.40;99.90
48488;DHT22;34289;48.572;13.378;2022-08-18T04:41:30;19.30;99.90
48488;DHT22;34289;48.572;13.378;2022-08-18T04:43:56;19.20;99.90
48488;DHT22;34289;48.572;13.378;2022-08-18T04:46:22;19.10;99.90
48488;DHT22;34289;48.572;13.378;2022-08-18T04:48:48;19.10;99.90
48488;DHT22;34289;48.572;13.378;2022-08-18T04:51:15;19.10;99.90
48488;DHT22;34289;48.572;13.378;2022-08-18T04:53:42;19.10;99.90
48488;DHT22;34289;48.572;13.378;2022-08-18T04:56:31;19.10;99.90
48488;DHT22;34289;48.572;13.378;2022-08-18T04:58:59;19.10;99.90
48488;DHT22;34289;48.572;13.378;2022-08-18T05:01:26;19.10;99.90
48488;DHT22;34289;48.572;13.378;2022-08-18T05:03:52;19.10;99.90
48488;DHT22;34289;48.572;13.378;2022-08-18T05:06:20;19.20;99.90
48488;DHT22;34289;48.572;13.378;2022-08-18T05:08:50;19.20;99.90
48488;DHT22;34289;48.572;13.378;2022-08-18T05:11:17;19.30;99.90
48488;DHT22;34289;48.572;13.378;2022-08-18T05:13:43;19.40;99.90
48488;DHT22;34289;48.572;13.378;2022-08-18T05:16:08;19.40;99.90
48488;DHT22;34289;48.572;13.378;2022-08-18T05:18:35;19.50;99.90
48488;DHT22;34289;48.572;13.378;2022-08-18T05:21:07;19.60;99.90
48488;DHT22;34289;48.572;13.378;2022-08-18T05:23:39;19.70;99.90
48488;DHT22;34289;48.572;13.378;2022-08-18T05:26:05;19.90;99.90
48488;DHT22;34289;48.572;13.378;2022-08-18T05:28:31;20.00;99.90
48488;DHT22;34289;48.572;13.378;2022-08-18T05:31:05;20.10;99.90
48488;DHT22;34289;48.572;13.378;2022-08-18T05:33:30;20.30;99.90
48488;DHT22;34289;48.572;13.378;2022-08-18T05:36:00;20.50;99.90
48488;DHT22;34289;48.572;13.378;2022-08-18T05:38:39;20.70;99.90
48488;DHT22;34289;48.572;13.378;2022-08-18T05:41:08;20.90;99.90
48488;DHT22;34289;48.572;13.378;2022-08-18T05:43:35;21.00;99.90
48488;DHT22;34289;48.572;13.378;2022-08-18T05:46:01;21.10;99.90
48488;DHT22;34289;48.572;13.378;2022-08-18T05:48:27;21.20;99.90
48488;DHT22;34289;48.572;13.378;2022-08-18T05:50:53;21.30;99.90
48488;DHT22;34289;48.572;13.378;2022-08-18T05:53:20;21.40;99.90
48488;DHT22;34289;48.572;13.378;2022-08-18T05:56:06;21.40;99.90
48488;DHT22;34289;48.572;13.378;2022-08-18T05:58:52;21.30;99.90
48488;DHT22;34289;48.572;13.378;2022-08-18T06:01:30;21.20;99.90
48488;DHT22;34289;48.572;13.378;2022-08-18T06:04:01;21.30;99.90
48488;DHT22;34289;48.572;13.378;2022-08-18T06:06:29;21.30;99.90
48488;DHT22;34289;48.572;13.378;2022-08-18T06:08:57;21.30;99.90
48488;DHT22;34289;48.572;13.378;2022-08-18T06:11:25;21.50;99.90
48488;DHT22;34289;48.572;13.378;2022-08-18T06:13:51;21.50;99.90
48488;DHT22;34289;48.572;13.378;2022-08-18T06:21:44;21.80;99.90
48488;DHT22;34289;48.572;13.378;2022-08-18T06:30:06;21.70;99.90
48488;DHT22;34289;48.572;13.378;2022-08-18T06:35:07;21.60;99.90
48488;DHT22;34289;48.572;13.378;2022-08-18T06:37:39;21.50;99.90
48488;DHT22;34289;48.572;13.378;2022-08-18T06:40:26;21.70;99.90
48488;DHT22;34289;48.572;13.378;2022-08-18T06:42:52;21.90;99.90
48488;DHT22;34289;48.572;13.378;2022-08-18T06:45:18;22.10;99.90
48488;DHT22;34289;48.572;13.378;2022-08-18T06:48:06;22.30;99.90
48488;DHT22;34289;48.572;13.378;2022-08-18T06:51:08;22.30;99.90
48488;DHT22;34289;48.572;13.378;2022-08-18T06:56:46;22.60;99.90
48488;DHT22;34289;48.572;13.378;2022-08-18T06:59:18;22.70;99.90
48488;DHT22;34289;48.572;13.378;2022-08-18T07:01:45;23.00;99.90
48488;DHT22;34289;48.572;13.378;2022-08-18T07:06:57;23.40;99.90
48488;DHT22;34289;48.572;13.378;2022-08-18T07:09:23;23.50;99.90
48488;DHT22;34289;48.572;13.378;2022-08-18T07:14:27;23.70;99.90
48488;DHT22;34289;48.572;13.378;2022-08-18T07:17:06;23.90;99.90
48488;DHT22;34289;48.572;13.378;2022-08-18T07:19:32;23.90;99.90
48488;DHT22;34289;48.572;13.378;2022-08-18T07:22:02;23.90;99.90
48488;DHT22;34289;48.572;13.378;2022-08-18T07:24:33;24.00;99.90
48488;DHT22;34289;48.572;13.378;2022-08-18T07:27:00;24.10;99.90
48488;DHT22;34289;48.572;13.378;2022-08-18T07:29:26;24.30;99.90
48488;DHT22;34289;48.572;13.378;2022-08-18T07:31:53;24.40;99.90
48488;DHT22;34289;48.572;13.378;2022-08-18T07:34:41;24.60;99.90
48488;DHT22;34289;48.572;13.378;2022-08-18T07:37:10;24.60;99.90
48488;DHT22;34289;48.572;13.378;2022-08-18T07:39:55;25.10;99.90
48488;DHT22;34289;48.572;13.378;2022-08-18T07:42:36;25.20;99.90
48488;DHT22;34289;48.572;13.378;2022-08-18T07:47:37;25.30;99.90
48488;DHT22;34289;48.572;13.378;2022-08-18T07:50:05;25.40;99.90
48488;DHT22;34289;48.572;13.378;2022-08-18T07:52:39;25.20;99.90
48488;DHT22;34289;48.572;13.378;2022-08-18T07:55:26;25.10;99.90
48488;DHT22;34289;48.572;13.378;2022-08-18T08:03:09;25.20;99.90
48488;DHT22;34289;48.572;13.378;2022-08-18T08:08:05;25.50;99.90
48488;DHT22;34289;48.572;13.378;2022-08-18T08:15:39;25.60;99.90
48488;DHT22;34289;48.572;13.378;2022-08-18T08:20:42;25.80;99.90
48488;DHT22;34289;48.572;13.378;2022-08-18T08:26:04;25.90;99.90
48488;DHT22;34289;48.572;13.378;2022-08-18T08:28:44;25.90;99.90
48488;DHT22;34289;48.572;13.378;2022-08-18T08:31:15;25.90;99.90
48488;DHT22;34289;48.572;13.378;2022-08-18T08:36:24;25.70;99.90
48488;DHT22;34289;48.572;13.378;2022-08-18T08:38:53;26.20;99.90
48488;DHT22;34289;48.572;13.378;2022-08-18T08:46:26;25.60;99.90
48488;DHT22;34289;48.572;13.378;2022-08-18T08:49:07;25.70;99.90
48488;DHT22;34289;48.572;13.378;2022-08-18T08:56:32;26.30;99.90
48488;DHT22;34289;48.572;13.378;2022-08-18T08:59:02;26.50;99.90
48488;DHT22;34289;48.572;13.378;2022-08-18T09:01:32;26.60;99.90
48488;DHT22;34289;48.572;13.378;2022-08-18T09:04:01;26.70;99.90
48488;DHT22;34289;48.572;13.378;2022-08-18T09:11:24;26.80;99.90
48488;DHT22;34289;48.572;13.378;2022-08-18T09:24:54;26.90;99.90
48488;DHT22;34289;48.572;13.378;2022-08-18T09:30:03;27.50;99.90
48488;DHT22;34289;48.572;13.378;2022-08-18T09:32:29;27.80;99.90
48488;DHT22;34289;48.572;13.378;2022-08-18T09:40:53;27.90;99.90
48488;DHT22;34289;48.572;13.378;2022-08-18T09:43:51;27.90;99.90
48488;DHT22;34289;48.572;13.378;2022-08-18T09:46:48;28.00;99.90
48488;DHT22;34289;48.572;13.378;2022-08-18T09:51:46;28.00;99.90
48488;DHT22;34289;48.572;13.378;2022-08-18T09:54:13;27.80;99.90
48488;DHT22;34289;48.572;13.378;2022-08-18T10:02:00;28.40;99.90
48488;DHT22;34289;48.572;13.378;2022-08-18T10:04:27;28.70;99.90
48488;DHT22;34289;48.572;13.378;2022-08-18T10:06:52;29.00;99.90
48488;DHT22;34289;48.572;13.378;2022-08-18T10:09:27;29.20;99.90
48488;DHT22;34289;48.572;13.378;2022-08-18T10:25:08;30.30;99.50
48488;DHT22;34289;48.572;13.378;2022-08-18T10:27:09;30.10;99.40
48488;DHT22;34289;48.572;13.378;2022-08-18T10:29:48;30.10;99.90
48488;DHT22;34289;48.572;13.378;2022-08-18T10:34:50;30.10;99.10
48488;DHT22;34289;48.572;13.378;2022-08-18T10:37:30;30.10;99.00
48488;DHT22;34289;48.572;13.378;2022-08-18T10:39:59;30.50;98.70
48488;DHT22;34289;48.572;13.378;2022-08-18T10:44:51;30.70;98.00
48488;DHT22;34289;48.572;13.378;2022-08-18T10:47:22;30.40;97.70
48488;DHT22;34289;48.572;13.378;2022-08-18T10:49:48;30.30;97.90
48488;DHT22;34289;48.572;13.378;2022-08-18T10:55:03;30.20;98.00
48488;DHT22;34289;48.572;13.378;2022-08-18T11:00:03;29.70;98.00
48488;DHT22;34289;48.572;13.378;2022-08-18T11:02:41;29.50;97.90
48488;DHT22;34289;48.572;13.378;2022-08-18T11:05:11;29.40;98.60
48488;DHT22;34289;48.572;13.378;2022-08-18T11:07:39;29.70;98.00
48488;DHT22;34289;48.572;13.378;2022-08-18T11:10:22;29.80;97.80
48488;DHT22;34289;48.572;13.378;2022-08-18T11:12:57;29.80;97.50
48488;DHT22;34289;48.572;13.378;2022-08-18T11:18:08;30.20;97.50
48488;DHT22;34289;48.572;13.378;2022-08-18T11:20:38;30.20;97.00
48488;DHT22;34289;48.572;13.378;2022-08-18T11:23:10;30.30;96.90
48488;DHT22;34289;48.572;13.378;2022-08-18T11:25:36;30.80;97.00
48488;DHT22;34289;48.572;13.378;2022-08-18T11:28:02;31.00;96.00
48488;DHT22;34289;48.572;13.378;2022-08-18T11:30:38;30.80;95.70
48488;DHT22;34289;48.572;13.378;2022-08-18T11:33:06;30.60;96.00
48488;DHT22;34289;48.572;13.378;2022-08-18T11:35:32;30.30;95.80
48488;DHT22;34289;48.572;13.378;2022-08-18T11:38:03;30.40;96.50
48488;DHT22;34289;48.572;13.378;2022-08-18T11:40:31;30.40;95.80
48488;DHT22;34289;48.572;13.378;2022-08-18T11:45:25;31.20;96.40
48488;DHT22;34289;48.572;13.378;2022-08-18T11:47:58;31.80;95.00
48488;DHT22;34289;48.572;13.378;2022-08-18T11:50:30;32.00;94.80
48488;DHT22;34289;48.572;13.378;2022-08-18T11:53:01;32.20;95.10
48488;DHT22;34289;48.572;13.378;2022-08-18T11:55:35;32.50;94.20
48488;DHT22;34289;48.572;13.378;2022-08-18T11:58:02;32.60;93.30
48488;DHT22;34289;48.572;13.378;2022-08-18T12:00:52;32.70;93.20
48488;DHT22;34289;48.572;13.378;2022-08-18T12:03:25;32.80;92.20
48488;DHT22;34289;48.572;13.378;2022-08-18T12:05:53;32.60;92.20
48488;DHT22;34289;48.572;13.378;2022-08-18T12:08:21;32.50;92.00
48488;DHT22;34289;48.572;13.378;2022-08-18T12:10:48;32.40;92.00
48488;DHT22;34289;48.572;13.378;2022-08-18T12:13:21;32.60;92.10
48488;DHT22;34289;48.572;13.378;2022-08-18T12:15:47;32.40;91.30
48488;DHT22;34289;48.572;13.378;2022-08-18T12:18:13;32.10;91.50
48488;DHT22;34289;48.572;13.378;2022-08-18T12:20:38;32.00;91.60
48488;DHT22;34289;48.572;13.378;2022-08-18T12:23:04;32.00;91.10
48488;DHT22;34289;48.572;13.378;2022-08-18T12:25:29;32.30;91.80
48488;DHT22;34289;48.572;13.378;2022-08-18T12:27:55;32.60;90.60
48488;DHT22;34289;48.572;13.378;2022-08-18T12:30:21;32.60;90.50
48488;DHT22;34289;48.572;13.378;2022-08-18T12:32:46;32.90;90.60
48488;DHT22;34289;48.572;13.378;2022-08-18T12:35:12;33.20;90.50
48488;DHT22;34289;48.572;13.378;2022-08-18T12:37:40;33.00;88.70
48488;DHT22;34289;48.572;13.378;2022-08-18T12:40:06;32.80;90.30
48488;DHT22;34289;48.572;13.378;2022-08-18T12:42:32;32.70;90.60
48488;DHT22;34289;48.572;13.378;2022-08-18T12:44:58;32.70;90.70
48488;DHT22;34289;48.572;13.378;2022-08-18T12:47:24;32.50;91.00
48488;DHT22;34289;48.572;13.378;2022-08-18T12:49:50;32.70;90.70
48488;DHT22;34289;48.572;13.378;2022-08-18T12:52:16;32.80;90.20
48488;DHT22;34289;48.572;13.378;2022-08-18T12:54:42;33.10;89.20
48488;DHT22;34289;48.572;13.378;2022-08-18T12:57:09;33.00;89.00
48488;DHT22;34289;48.572;13.378;2022-08-18T12:59:36;33.40;89.50
48488;DHT22;34289;48.572;13.378;2022-08-18T13:02:02;33.90;88.70
48488;DHT22;34289;48.572;13.378;2022-08-18T13:04:28;33.90;87.70
48488;DHT22;34289;48.572;13.378;2022-08-18T13:06:55;33.80;87.10
48488;DHT22;34289;48.572;13.378;2022-08-18T13:09:21;33.40;87.70
48488;DHT22;34289;48.572;13.378;2022-08-18T13:11:47;33.30;88.80
48488;DHT22;34289;48.572;13.378;2022-08-18T13:14:13;33.00;88.60
48488;DHT22;34289;48.572;13.378;2022-08-18T13:16:40;32.90;88.40
48488;DHT22;34289;48.572;13.378;2022-08-18T13:19:07;32.50;88.40
48488;DHT22;34289;48.572;13.378;2022-08-18T13:21:33;32.00;89.70
48488;DHT22;34289;48.572;13.378;2022-08-18T13:23:58;31.80;90.20
48488;DHT22;34289;48.572;13.378;2022-08-18T13:26:26;31.60;90.60
48488;DHT22;34289;48.572;13.378;2022-08-18T13:28:52;31.50;90.90
48488;DHT22;34289;48.572;13.378;2022-08-18T13:31:18;31.50;91.20
48488;DHT22;34289;48.572;13.378;2022-08-18T13:33:43;31.80;91.50
48488;DHT22;34289;48.572;13.378;2022-08-18T13:36:09;32.10;90.80
48488;DHT22;34289;48.572;13.378;2022-08-18T13:38:35;32.20;89.50
48488;DHT22;34289;48.572;13.378;2022-08-18T13:41:01;32.20;88.80
48488;DHT22;34289;48.572;13.378;2022-08-18T13:43:30;32.30;89.80
48488;DHT22;34289;48.572;13.378;2022-08-18T13:45:56;32.30;90.00
48488;DHT22;34289;48.572;13.378;2022-08-18T13:48:22;32.60;88.30
48488;DHT22;34289;48.572;13.378;2022-08-18T13:50:48;32.50;87.80
48488;DHT22;34289;48.572;13.378;2022-08-18T13:53:14;32.40;89.00
48488;DHT22;34289;48.572;13.378;2022-08-18T13:55:43;32.60;89.40
48488;DHT22;34289;48.572;13.378;2022-08-18T13:58:09;32.60;88.30
48488;DHT22;34289;48.572;13.378;2022-08-18T14:00:34;32.50;88.10
48488;DHT22;34289;48.572;13.378;2022-08-18T14:03:00;32.10;87.90
48488;DHT22;34289;48.572;13.378;2022-08-18T14:05:26;31.80;89.50
48488;DHT22;34289;48.572;13.378;2022-08-18T14:07:52;31.40;90.10
48488;DHT22;34289;48.572;13.378;2022-08-18T14:10:18;31.10;90.40
48488;DHT22;34289;48.572;13.378;2022-08-18T14:12:44;30.90;90.30
48488;DHT22;34289;48.572;13.378;2022-08-18T14:15:11;30.60;90.80
48488;DHT22;34289;48.572;13.378;2022-08-18T14:17:37;30.40;90.60
48488;DHT22;34289;48.572;13.378;2022-08-18T14:20:03;30.30;91.30
48488;DHT22;34289;48.572;13.378;2022-08-18T14:22:51;30.30;90.90
48488;DHT22;34289;48.572;13.378;2022-08-18T14:25:36;30.20;90.90
48488;DHT22;34289;48.572;13.378;2022-08-18T14:28:20;30.10;91.90
48488;DHT22;34289;48.572;13.378;2022-08-18T14:30:45;30.10;92.50
48488;DHT22;34289;48.572;13.378;2022-08-18T14:33:11;30.20;92.60
48488;DHT22;34289;48.572;13.378;2022-08-18T14:35:39;30.30;92.80
48488;DHT22;34289;48.572;13.378;2022-08-18T14:38:05;30.40;92.10
48488;DHT22;34289;48.572;13.378;2022-08-18T14:40:31;30.50;91.20
48488;DHT22;34289;48.572;13.378;2022-08-18T14:42:57;30.50;91.40
48488;DHT22;34289;48.572;13.378;2022-08-18T14:45:23;30.60;91.60
48488;DHT22;34289;48.572;13.378;2022-08-18T14:47:49;30.60;91.50
48488;DHT22;34289;48.572;13.378;2022-08-18T14:50:18;30.60;92.30
48488;DHT22;34289;48.572;13.378;2022-08-18T14:52:43;30.60;92.90
48488;DHT22;34289;48.572;13.378;2022-08-18T14:55:09;30.40;91.70
48488;DHT22;34289;48.572;13.378;2022-08-18T14:57:36;30.30;90.90
48488;DHT22;34289;48.572;13.378;2022-08-18T15:00:03;30.30;91.40
48488;DHT22;34289;48.572;13.378;2022-08-18T15:02:28;30.50;92.00
48488;DHT22;34289;48.572;13.378;2022-08-18T15:04:54;30.70;91.80
48488;DHT22;34289;48.572;13.378;2022-08-18T15:07:20;30.90;91.60
48488;DHT22;34289;48.572;13.378;2022-08-18T15:09:47;31.00;91.90
48488;DHT22;34289;48.572;13.378;2022-08-18T15:12:12;31.10;91.30
48488;DHT22;34289;48.572;13.378;2022-08-18T15:14:39;31.10;91.20
48488;DHT22;34289;48.572;13.378;2022-08-18T15:17:05;31.20;91.20
48488;DHT22;34289;48.572;13.378;2022-08-18T15:19:33;31.20;91.50
48488;DHT22;34289;48.572;13.378;2022-08-18T15:21:59;31.10;92.00
48488;DHT22;34289;48.572;13.378;2022-08-18T15:24:43;31.30;91.10
48488;DHT22;34289;48.572;13.378;2022-08-18T15:27:31;31.30;91.70
48488;DHT22;34289;48.572;13.378;2022-08-18T15:29:57;30.90;92.20
48488;DHT22;34289;48.572;13.378;2022-08-18T15:32:23;30.40;91.50
48488;DHT22;34289;48.572;13.378;2022-08-18T15:34:48;30.10;91.70
48488;DHT22;34289;48.572;13.378;2022-08-18T15:37:16;29.60;91.40
48488;DHT22;34289;48.572;13.378;2022-08-18T15:39:41;29.40;91.60
48488;DHT22;34289;48.572;13.378;2022-08-18T15:42:08;29.30;92.00
48488;DHT22;34289;48.572;13.378;2022-08-18T15:44:34;29.20;92.00
48488;DHT22;34289;48.572;13.378;2022-08-18T15:47:00;29.20;91.90
48488;DHT22;34289;48.572;13.378;2022-08-18T15:49:28;29.30;91.90
48488;DHT22;34289;48.572;13.378;2022-08-18T15:51:54;29.30;91.70
48488;DHT22;34289;48.572;13.378;2022-08-18T15:54:20;29.30;91.70
48488;DHT22;34289;48.572;13.378;2022-08-18T15:56:46;29.20;93.40
48488;DHT22;34289;48.572;13.378;2022-08-18T15:59:11;29.20;91.90
48488;DHT22;34289;48.572;13.378;2022-08-18T16:01:37;29.20;91.40
48488;DHT22;34289;48.572;13.378;2022-08-18T16:04:03;29.20;92.10
48488;DHT22;34289;48.572;13.378;2022-08-18T16:06:29;29.30;92.60
48488;DHT22;34289;48.572;13.378;2022-08-18T16:08:55;29.60;92.40
48488;DHT22;34289;48.572;13.378;2022-08-18T16:11:20;30.50;91.90
48488;DHT22;34289;48.572;13.378;2022-08-18T16:13:46;32.00;90.50
48488;DHT22;34289;48.572;13.378;2022-08-18T16:16:14;32.00;90.20
48488;DHT22;34289;48.572;13.378;2022-08-18T16:18:40;31.70;90.50
48488;DHT22;34289;48.572;13.378;2022-08-18T16:21:06;31.20;91.10
48488;DHT22;34289;48.572;13.378;2022-08-18T16:23:38;30.70;92.00
48488;DHT22;34289;48.572;13.378;2022-08-18T16:26:05;30.30;92.10
48488;DHT22;34289;48.572;13.378;2022-08-18T16:28:31;29.90;92.10
48488;DHT22;34289;48.572;13.378;2022-08-18T16:30:57;29.70;92.40
48488;DHT22;34289;48.572;13.378;2022-08-18T16:33:23;29.40;92.70
48488;DHT22;34289;48.572;13.378;2022-08-18T16:35:49;29.30;92.60
48488;DHT22;34289;48.572;13.378;2022-08-18T16:38:16;29.10;93.10
48488;DHT22;34289;48.572;13.378;2022-08-18T16:40:42;29.00;92.90
48488;DHT22;34289;48.572;13.378;2022-08-18T16:43:08;28.90;94.30
48488;DHT22;34289;48.572;13.378;2022-08-18T16:45:38;28.70;94.70
48488;DHT22;34289;48.572;13.378;2022-08-18T16:48:07;28.50;95.00
48488;DHT22;34289;48.572;13.378;2022-08-18T16:50:34;28.40;94.50
48488;DHT22;34289;48.572;13.378;2022-08-18T16:53:00;28.30;94.70
48488;DHT22;34289;48.572;13.378;2022-08-18T16:55:25;28.30;94.70
48488;DHT22;34289;48.572;13.378;2022-08-18T16:57:51;28.20;94.70
48488;DHT22;34289;48.572;13.378;2022-08-18T17:00:35;28.50;93.80
48488;DHT22;34289;48.572;13.378;2022-08-18T17:03:19;28.70;93.40
48488;DHT22;34289;48.572;13.378;2022-08-18T17:06:05;30.10;93.80
48488;DHT22;34289;48.572;13.378;2022-08-18T17:08:31;28.60;93.60
48488;DHT22;34289;48.572;13.378;2022-08-18T17:11:00;28.50;93.70
48488;DHT22;34289;48.572;13.378;2022-08-18T17:13:26;28.50;94.00
48488;DHT22;34289;48.572;13.378;2022-08-18T17:15:51;28.30;94.10
48488;DHT22;34289;48.572;13.378;2022-08-18T17:18:17;28.30;94.30
48488;DHT22;34289;48.572;13.378;2022-08-18T17:20:44;28.20;94.70
48488;DHT22;34289;48.572;13.378;2022-08-18T17:23:09;28.20;96.00